sensor_id;sensor_type;location;lat;lon;timestamp;pressure;altitude;pressure_sealevel;temperature;humidity
44872;BME280;30602;51.060;17.226;2023-02-04T00:01:08;100944.93;;;3.61;97.51
44872;BME280;30602;51.060;17.226;2023-02-04T00:05:11;100945.95;;;3.54;93.00
44872;BME280;30602;51.060;17.226;2023-02-04T00:08:21;100950.97;;;3.41;89.34
44872;BME280;30602;51.060;17.226;2023-02-04T00:11:51;100978.59;;;3.29;88.14
44872;BME280;30602;51.060;17.226;2023-02-04T00:15:04;100967.16;;;3.25;88.38
44872;BME280;30602;51.060;17.226;2023-02-04T00:18:12;100968.31;;;3.15;89.23
44872;BME280;30602;51.060;17.226;2023-02-04T00:21:22;100975.06;;;3.11;89.88
44872;BME280;30602;51.060;17.226;2023-02-04T00:25:05;100982.81;;;3.07;90.26
44872;BME280;30602;51.060;17.226;2023-02-04T00:28:13;100977.06;;;3.05;90.59
44872;BME280;30602;51.060;17.226;2023-02-04T00:32:07;100992.41;;;3.09;90.20
44872;BME280;30602;51.060;17.226;2023-02-04T00:35:14;101008.64;;;3.13;90.39
44872;BME280;30602;51.060;17.226;2023-02-04T00:38:24;101013.84;;;3.09;90.41
44872;BME280;30602;51.060;17.226;2023-02-04T00:41:32;101020.00;;;3.11;90.83
44872;BME280;30602;51.060;17.226;2023-02-04T00:45:40;101041.34;;;3.04;90.36
44872;BME280;30602;51.060;17.226;2023-02-04T00:49:11;101044.15;;;2.96;90.12
44872;BME280;30602;51.060;17.226;2023-02-04T00:52:22;101045.18;;;2.79;91.51
44872;BME280;30602;51.060;17.226;2023-02-04T00:55:31;101054.40;;;2.77;92.25
44872;BME280;30602;51.060;17.226;2023-02-04T00:59:13;101059.13;;;2.78;92.73
44872;BME280;30602;51.060;17.226;2023-02-04T01:02:58;101059.97;;;2.64;93.84
44872;BME280;30602;51.060;17.226;2023-02-04T01:06:30;101077.95;;;2.57;94.48
44872;BME280;30602;51.060;17.226;2023-02-04T01:09:41;101092.65;;;2.49;95.36
44872;BME280;30602;51.060;17.226;2023-02-04T01:13:06;101094.41;;;2.38;96.65
44872;BME280;30602;51.060;17.226;2023-02-04T01:16:16;101103.09;;;2.27;97.73
44872;BME280;30602;51.060;17.226;2023-02-04T01:19:24;101106.60;;;2.17;98.48
44872;BME280;30602;51.060;17.226;2023-02-04T01:22:47;101119.02;;;2.12;99.41
44872;BME280;30602;51.060;17.226;2023-02-04T01:25:55;101124.73;;;2.07;99.67
44872;BME280;30602;51.060;17.226;2023-02-04T01:29:27;101136.61;;;2.01;99.99
44872;BME280;30602;51.060;17.226;2023-02-04T01:32:36;101143.93;;;1.98;100.00
44872;BME280;30602;51.060;17.226;2023-02-04T01:35:44;101146.93;;;1.92;99.99
44872;BME280;30602;51.060;17.226;2023-02-04T01:38:54;101162.55;;;1.91;99.97
44872;BME280;30602;51.060;17.226;2023-02-04T01:42:38;101168.10;;;1.88;99.86
44872;BME280;30602;51.060;17.226;2023-02-04T01:46:05;101209.82;;;1.80;99.38
44872;BME280;30602;51.060;17.226;2023-02-04T01:49:26;101233.68;;;1.67;98.83
44872;BME280;30602;51.060;17.226;2023-02-04T01:52:37;101281.76;;;1.32;96.09
44872;BME280;30602;51.060;17.226;2023-02-04T01:56:18;101311.37;;;1.09;93.88
44872;BME280;30602;51.060;17.226;2023-02-04T01:59:51;101353.58;;;0.89;94.25
44872;BME280;30602;51.060;17.226;2023-02-04T02:03:23;101352.33;;;0.70;93.69
44872;BME280;30602;51.060;17.226;2023-02-04T02:06:56;101379.76;;;0.58;93.98
44872;BME280;30602;51.060;17.226;2023-02-04T02:10:10;101401.78;;;0.50;93.99
44872;BME280;30602;51.060;17.226;2023-02-04T02:13:47;101424.09;;;0.47;94.82
44872;BME280;30602;51.060;17.226;2023-02-04T02:17:15;101469.40;;;0.42;94.34
44872;BME280;30602;51.060;17.226;2023-02-04T02:20:26;101473.87;;;0.32;93.16
44872;BME280;30602;51.060;17.226;2023-02-04T02:23:46;101487.49;;;0.29;92.55
44872;BME280;30602;51.060;17.226;2023-02-04T02:27:04;101500.91;;;0.25;92.54
44872;BME280;30602;51.060;17.226;2023-02-04T02:30:48;101528.98;;;0.25;92.62
44872;BME280;30602;51.060;17.226;2023-02-04T02:33:59;101556.50;;;0.20;92.52
44872;BME280;30602;51.060;17.226;2023-02-04T02:37:18;101572.69;;;0.14;91.50
44872;BME280;30602;51.060;17.226;2023-02-04T02:40:28;101590.94;;;0.17;91.49
44872;BME280;30602;51.060;17.226;2023-02-04T02:43:37;101610.23;;;0.09;90.32
44872;BME280;30602;51.060;17.226;2023-02-04T02:47:38;101643.96;;;0.11;90.66
44872;BME280;30602;51.060;17.226;2023-02-04T02:50:58;101657.98;;;0.09;89.12
44872;BME280;30602;51.060;17.226;2023-02-04T02:54:07;101686.60;;;0.07;88.99
44872;BME280;30602;51.060;17.226;2023-02-04T02:57:32;101701.73;;;0.08;88.30
44872;BME280;30602;51.060;17.226;2023-02-04T03:02:02;101726.82;;;-0.04;88.24
44872;BME280;30602;51.060;17.226;2023-02-04T03:05:11;101756.20;;;0.11;87.24
44872;BME280;30602;51.060;17.226;2023-02-04T03:08:43;101776.58;;;0.09;87.50
44872;BME280;30602;51.060;17.226;2023-02-04T03:12:47;101820.54;;;0.13;86.64
44872;BME280;30602;51.060;17.226;2023-02-04T03:16:08;101821.12;;;0.14;85.73
44872;BME280;30602;51.060;17.226;2023-02-04T03:19:51;101835.95;;;0.17;86.67
44872;BME280;30602;51.060;17.226;2023-02-04T03:23:35;101868.99;;;0.17;86.25
44872;BME280;30602;51.060;17.226;2023-02-04T03:27:34;101888.54;;;0.06;87.01
44872;BME280;30602;51.060;17.226;2023-02-04T03:30:46;101915.80;;;0.06;85.85
44872;BME280;30602;51.060;17.226;2023-02-04T03:34:05;101942.59;;;-0.02;85.64
44872;BME280;30602;51.060;17.226;2023-02-04T03:37:16;101978.23;;;-0.11;85.99
44872;BME280;30602;51.060;17.226;2023-02-04T03:40:56;101995.42;;;-0.15;85.08
44872;BME280;30602;51.060;17.226;2023-02-04T03:44:04;102001.80;;;-0.16;85.05
44872;BME280;30602;51.060;17.226;2023-02-04T03:47:25;102032.91;;;-0.20;85.19
44872;BME280;30602;51.060;17.226;2023-02-04T03:50:47;102049.77;;;-0.25;84.20
44872;BME280;30602;51.060;17.226;2023-02-04T03:54:32;102071.45;;;-0.23;84.31
44872;BME280;30602;51.060;17.226;2023-02-04T03:57:58;102092.16;;;-0.30;82.69
44872;BME280;30602;51.060;17.226;2023-02-04T04:01:06;102093.12;;;-0.26;83.62
44872;BME280;30602;51.060;17.226;2023-02-04T04:04:30;102124.09;;;-0.26;84.14
44872;BME280;30602;51.060;17.226;2023-02-04T04:07:41;102124.77;;;-0.30;83.57
44872;BME280;30602;51.060;17.226;2023-02-04T04:10:55;102140.13;;;-0.32;83.39
44872;BME280;30602;51.060;17.226;2023-02-04T04:14:04;102156.64;;;-0.29;83.90
44872;BME280;30602;51.060;17.226;2023-02-04T04:17:12;102163.18;;;-0.29;83.58
44872;BME280;30602;51.060;17.226;2023-02-04T04:20:33;102189.88;;;-0.33;82.79
44872;BME280;30602;51.060;17.226;2023-02-04T04:24:24;102190.30;;;-0.30;83.80
44872;BME280;30602;51.060;17.226;2023-02-04T04:27:30;102210.98;;;-0.31;83.41
44872;BME280;30602;51.060;17.226;2023-02-04T04:30:40;102229.30;;;-0.26;83.86
44872;BME280;30602;51.060;17.226;2023-02-04T04:33:55;102232.30;;;-0.25;83.57
44872;BME280;30602;51.060;17.226;2023-02-04T04:37:25;102238.88;;;-0.21;83.60
44872;BME280;30602;51.060;17.226;2023-02-04T04:40:50;102261.38;;;-0.25;83.36
44872;BME280;30602;51.060;17.226;2023-02-04T04:44:23;102269.10;;;-0.27;83.16
44872;BME280;30602;51.060;17.226;2023-02-04T04:47:29;102280.33;;;-0.22;83.43
44872;BME280;30602;51.060;17.226;2023-02-04T04:50:34;102293.45;;;-0.28;83.67
44872;BME280;30602;51.060;17.226;2023-02-04T04:54:08;102316.16;;;-0.28;83.18
44872;BME280;30602;51.060;17.226;2023-02-04T04:57:19;102320.02;;;-0.30;82.51
44872;BME280;30602;51.060;17.226;2023-02-04T05:00:30;102328.66;;;-0.33;82.94
44872;BME280;30602;51.060;17.226;2023-02-04T05:03:42;102348.86;;;-0.32;82.39
44872;BME280;30602;51.060;17.226;2023-02-04T05:06:52;102331.49;;;-0.48;82.91
44872;BME280;30602;51.060;17.226;2023-02-04T05:10:03;102372.63;;;-0.32;83.23
44872;BME280;30602;51.060;17.226;2023-02-04T05:13:12;102384.41;;;-0.36;82.85
44872;BME280;30602;51.060;17.226;2023-02-04T05:16:20;102393.71;;;-0.40;81.87
44872;BME280;30602;51.060;17.226;2023-02-04T05:19:30;102411.28;;;-0.35;81.67
44872;BME280;30602;51.060;17.226;2023-02-04T05:22:43;102430.68;;;-0.35;81.44
44872;BME280;30602;51.060;17.226;2023-02-04T05:26:26;102441.80;;;-0.37;80.92
44872;BME280;30602;51.060;17.226;2023-02-04T05:29:38;102459.18;;;-0.39;81.26
44872;BME280;30602;51.060;17.226;2023-02-04T05:32:56;102463.52;;;-0.42;81.43
44872;BME280;30602;51.060;17.226;2023-02-04T05:36:04;102486.88;;;-0.39;81.13
44872;BME280;30602;51.060;17.226;2023-02-04T05:39:14;102494.42;;;-0.41;81.16
44872;BME280;30602;51.060;17.226;2023-02-04T05:42:24;102515.10;;;-0.41;80.93
44872;BME280;30602;51.060;17.226;2023-02-04T05:45:36;102515.19;;;-0.44;80.60
44872;BME280;30602;51.060;17.226;2023-02-04T05:48:46;102512.54;;;-0.36;81.08
44872;BME280;30602;51.060;17.226;2023-02-04T05:52:16;102519.23;;;-0.32;81.12
44872;BME280;30602;51.060;17.226;2023-02-04T05:56:14;102518.21;;;-0.46;80.33
44872;BME280;30602;51.060;17.226;2023-02-04T05:59:22;102531.13;;;-0.42;80.55
44872;BME280;30602;51.060;17.226;2023-02-04T06:02:34;102542.40;;;-0.42;81.00
44872;BME280;30602;51.060;17.226;2023-02-04T06:05:47;102559.07;;;-0.46;81.10
44872;BME280;30602;51.060;17.226;2023-02-04T06:08:58;102579.53;;;-0.42;81.69
44872;BME280;30602;51.060;17.226;2023-02-04T06:12:06;102588.72;;;-0.49;82.06
44872;BME280;30602;51.060;17.226;2023-02-04T06:15:50;102581.94;;;-0.57;81.98
44872;BME280;30602;51.060;17.226;2023-02-04T06:18:58;102613.00;;;-0.45;82.31
44872;BME280;30602;51.060;17.226;2023-02-04T06:22:06;102623.34;;;-0.46;81.94
44872;BME280;30602;51.060;17.226;2023-02-04T06:25:46;102627.77;;;-0.49;82.18
44872;BME280;30602;51.060;17.226;2023-02-04T06:29:27;102638.60;;;-0.53;82.33
44872;BME280;30602;51.060;17.226;2023-02-04T06:32:58;102653.22;;;-0.52;82.67
44872;BME280;30602;51.060;17.226;2023-02-04T06:36:08;102669.94;;;-0.56;82.76
44872;BME280;30602;51.060;17.226;2023-02-04T06:39:21;102675.52;;;-0.59;82.92
44872;BME280;30602;51.060;17.226;2023-02-04T06:43:00;102692.71;;;-0.53;83.06
44872;BME280;30602;51.060;17.226;2023-02-04T06:46:33;102695.91;;;-0.52;83.01
44872;BME280;30602;51.060;17.226;2023-02-04T06:49:42;102715.76;;;-0.46;83.32
44872;BME280;30602;51.060;17.226;2023-02-04T06:52:54;102733.25;;;-0.49;83.15
44872;BME280;30602;51.060;17.226;2023-02-04T06:57:06;102749.73;;;-0.49;83.70
44872;BME280;30602;51.060;17.226;2023-02-04T07:00:14;102762.67;;;-0.44;83.83
44872;BME280;30602;51.060;17.226;2023-02-04T07:04:15;102774.91;;;-0.42;84.34
44872;BME280;30602;51.060;17.226;2023-02-04T07:07:37;102784.50;;;-0.43;84.12
44872;BME280;30602;51.060;17.226;2023-02-04T07:10:46;102800.88;;;-0.43;83.83
44872;BME280;30602;51.060;17.226;2023-02-04T07:13:57;102810.76;;;-0.40;83.84
44872;BME280;30602;51.060;17.226;2023-02-04T07:17:10;102817.45;;;-0.44;83.83
44872;BME280;30602;51.060;17.226;2023-02-04T07:20:18;102836.63;;;-0.48;82.82
44872;BME280;30602;51.060;17.226;2023-02-04T07:23:28;102850.09;;;-0.54;82.80
44872;BME280;30602;51.060;17.226;2023-02-04T07:27:32;102844.77;;;-0.49;83.34
44872;BME280;30602;51.060;17.226;2023-02-04T07:31:05;102854.16;;;-0.62;83.10
44872;BME280;30602;51.060;17.226;2023-02-04T07:34:29;102866.50;;;-0.61;82.13
44872;BME280;30602;51.060;17.226;2023-02-04T07:37:50;102876.80;;;-0.62;81.92
44872;BME280;30602;51.060;17.226;2023-02-04T07:41:03;102889.37;;;-0.61;82.13
44872;BME280;30602;51.060;17.226;2023-02-04T07:44:24;102898.17;;;-0.65;82.05
44872;BME280;30602;51.060;17.226;2023-02-04T07:48:05;102901.26;;;-0.61;82.68
44872;BME280;30602;51.060;17.226;2023-02-04T07:51:27;102906.14;;;-0.59;82.55
44872;BME280;30602;51.060;17.226;2023-02-04T07:54:34;102912.62;;;-0.59;81.65
44872;BME280;30602;51.060;17.226;2023-02-04T07:57:44;102909.42;;;-0.62;80.34
44872;BME280;30602;51.060;17.226;2023-02-04T08:01:10;102908.22;;;-0.55;80.40
44872;BME280;30602;51.060;17.226;2023-02-04T08:04:20;102901.66;;;-0.60;80.32
44872;BME280;30602;51.060;17.226;2023-02-04T08:07:41;102907.45;;;-0.56;80.04
44872;BME280;30602;51.060;17.226;2023-02-04T08:10:53;102909.30;;;-0.53;80.66
44872;BME280;30602;51.060;17.226;2023-02-04T08:14:03;102910.03;;;-0.41;80.42
44872;BME280;30602;51.060;17.226;2023-02-04T08:17:10;102925.96;;;-0.43;79.75
44872;BME280;30602;51.060;17.226;2023-02-04T08:20:52;102930.47;;;-0.29;80.23
44872;BME280;30602;51.060;17.226;2023-02-04T08:24:00;102930.98;;;-0.20;78.73
44872;BME280;30602;51.060;17.226;2023-02-04T08:28:15;102937.74;;;-0.17;78.33
44872;BME280;30602;51.060;17.226;2023-02-04T08:31:27;102936.01;;;-0.19;78.77
44872;BME280;30602;51.060;17.226;2023-02-04T08:34:55;102939.55;;;-0.17;79.38
44872;BME280;30602;51.060;17.226;2023-02-04T08:38:57;102923.91;;;-0.22;78.89
44872;BME280;30602;51.060;17.226;2023-02-04T08:42:06;102934.33;;;-0.09;80.17
44872;BME280;30602;51.060;17.226;2023-02-04T08:45:16;102935.80;;;-0.18;79.87
44872;BME280;30602;51.060;17.226;2023-02-04T08:48:57;102926.02;;;-0.12;80.26
44872;BME280;30602;51.060;17.226;2023-02-04T08:52:31;102950.46;;;-0.02;80.21
44872;BME280;30602;51.060;17.226;2023-02-04T08:56:20;102966.87;;;-0.09;80.06
44872;BME280;30602;51.060;17.226;2023-02-04T08:59:29;102966.87;;;-0.02;80.05
44872;BME280;30602;51.060;17.226;2023-02-04T09:02:59;102968.38;;;0.07;80.61
44872;BME280;30602;51.060;17.226;2023-02-04T09:06:32;102978.13;;;0.25;80.92
44872;BME280;30602;51.060;17.226;2023-02-04T09:10:14;102983.63;;;0.39;79.45
44872;BME280;30602;51.060;17.226;2023-02-04T09:13:41;102994.12;;;0.41;78.98
44872;BME280;30602;51.060;17.226;2023-02-04T09:17:26;102992.63;;;0.48;80.08
44872;BME280;30602;51.060;17.226;2023-02-04T09:20:49;102996.72;;;0.42;78.42
44872;BME280;30602;51.060;17.226;2023-02-04T09:23:59;103008.52;;;0.34;78.76
44872;BME280;30602;51.060;17.226;2023-02-04T09:27:27;103003.65;;;0.27;78.65
44872;BME280;30602;51.060;17.226;2023-02-04T09:30:48;103014.52;;;0.44;79.19
44872;BME280;30602;51.060;17.226;2023-02-04T09:34:31;103027.00;;;0.61;79.80
44872;BME280;30602;51.060;17.226;2023-02-04T09:38:01;103029.09;;;0.57;79.25
44872;BME280;30602;51.060;17.226;2023-02-04T09:41:42;103030.26;;;0.62;78.75
44872;BME280;30602;51.060;17.226;2023-02-04T09:45:28;103035.87;;;0.58;80.17
44872;BME280;30602;51.060;17.226;2023-02-04T09:49:09;103038.74;;;0.56;79.50
44872;BME280;30602;51.060;17.226;2023-02-04T09:52:20;103047.14;;;0.55;79.70
44872;BME280;30602;51.060;17.226;2023-02-04T09:55:38;103038.82;;;0.60;80.90
44872;BME280;30602;51.060;17.226;2023-02-04T09:58:49;103039.15;;;0.62;81.25
44872;BME280;30602;51.060;17.226;2023-02-04T10:02:49;103035.25;;;0.60;80.19
44872;BME280;30602;51.060;17.226;2023-02-04T10:05:58;103038.04;;;0.63;80.32
44872;BME280;30602;51.060;17.226;2023-02-04T10:09:31;103049.59;;;0.65;80.97
44872;BME280;30602;51.060;17.226;2023-02-04T10:13:02;103057.31;;;0.67;81.21
44872;BME280;30602;51.060;17.226;2023-02-04T10:16:16;103066.87;;;0.64;81.07
44872;BME280;30602;51.060;17.226;2023-02-04T10:20:15;103057.68;;;0.58;81.46
44872;BME280;30602;51.060;17.226;2023-02-04T10:24:04;103075.26;;;0.57;81.61
44872;BME280;30602;51.060;17.226;2023-02-04T10:27:52;103070.08;;;0.61;81.26
44872;BME280;30602;51.060;17.226;2023-02-04T10:35:02;103090.13;;;0.63;81.50
44872;BME280;30602;51.060;17.226;2023-02-04T10:38:12;103102.25;;;0.53;79.79
44872;BME280;30602;51.060;17.226;2023-02-04T10:41:57;103090.20;;;0.63;79.68
44872;BME280;30602;51.060;17.226;2023-02-04T10:45:36;103100.73;;;0.89;80.14
44872;BME280;30602;51.060;17.226;2023-02-04T10:49:02;103101.76;;;0.95;79.37
44872;BME280;30602;51.060;17.226;2023-02-04T10:52:50;103097.18;;;0.93;79.47
44872;BME280;30602;51.060;17.226;2023-02-04T10:56:42;103095.24;;;1.01;78.72
44872;BME280;30602;51.060;17.226;2023-02-04T11:03:28;103104.25;;;0.97;78.88
44872;BME280;30602;51.060;17.226;2023-02-04T11:06:41;103107.69;;;1.01;78.39
44872;BME280;30602;51.060;17.226;2023-02-04T11:10:03;103113.44;;;1.00;78.16
44872;BME280;30602;51.060;17.226;2023-02-04T11:17:01;103129.56;;;1.06;76.51
44872;BME280;30602;51.060;17.226;2023-02-04T11:20:44;103126.94;;;1.14;77.09
44872;BME280;30602;51.060;17.226;2023-02-04T11:24:33;103131.20;;;1.13;75.67
44872;BME280;30602;51.060;17.226;2023-02-04T11:27:43;103127.10;;;1.13;75.38
44872;BME280;30602;51.060;17.226;2023-02-04T11:30:59;103134.33;;;1.05;75.04
44872;BME280;30602;51.060;17.226;2023-02-04T11:34:47;103142.65;;;0.96;73.93
44872;BME280;30602;51.060;17.226;2023-02-04T11:38:32;103144.18;;;0.90;75.56
44872;BME280;30602;51.060;17.226;2023-02-04T11:41:45;103158.30;;;0.92;73.68
44872;BME280;30602;51.060;17.226;2023-02-04T11:45:30;103159.39;;;1.01;73.39
44872;BME280;30602;51.060;17.226;2023-02-04T11:48:55;103147.79;;;1.11;70.58
44872;BME280;30602;51.060;17.226;2023-02-04T11:52:10;103154.93;;;1.13;69.61
44872;BME280;30602;51.060;17.226;2023-02-04T11:55:25;103164.12;;;1.01;68.43
44872;BME280;30602;51.060;17.226;2023-02-04T11:58:32;103163.87;;;0.98;67.75
44872;BME280;30602;51.060;17.226;2023-02-04T12:05:37;103170.41;;;0.91;65.00
44872;BME280;30602;51.060;17.226;2023-02-04T12:09:25;103177.15;;;0.96;63.83
44872;BME280;30602;51.060;17.226;2023-02-04T12:15:58;103170.38;;;0.87;61.17
44872;BME280;30602;51.060;17.226;2023-02-04T12:19:09;103174.12;;;0.90;61.87
44872;BME280;30602;51.060;17.226;2023-02-04T12:22:41;103169.48;;;0.91;60.52
44872;BME280;30602;51.060;17.226;2023-02-04T12:26:24;103179.27;;;1.10;60.07
44872;BME280;30602;51.060;17.226;2023-02-04T12:29:44;103176.56;;;1.25;59.68
44872;BME280;30602;51.060;17.226;2023-02-04T12:33:26;103186.59;;;1.23;59.25
44872;BME280;30602;51.060;17.226;2023-02-04T12:36:33;103184.47;;;1.10;60.00
44872;BME280;30602;51.060;17.226;2023-02-04T12:39:40;103193.03;;;0.98;61.33
44872;BME280;30602;51.060;17.226;2023-02-04T12:43:08;103188.15;;;0.98;61.23
44872;BME280;30602;51.060;17.226;2023-02-04T12:46:18;103190.84;;;0.96;62.20
44872;BME280;30602;51.060;17.226;2023-02-04T12:49:27;103192.87;;;1.04;61.38
44872;BME280;30602;51.060;17.226;2023-02-04T12:52:38;103192.28;;;1.16;60.74
44872;BME280;30602;51.060;17.226;2023-02-04T12:55:57;103198.56;;;1.08;60.44
44872;BME280;30602;51.060;17.226;2023-02-04T12:59:24;103204.37;;;1.01;61.23
44872;BME280;30602;51.060;17.226;2023-02-04T13:03:03;103201.80;;;0.96;61.08
44872;BME280;30602;51.060;17.226;2023-02-04T13:06:37;103204.09;;;1.03;61.65
44872;BME280;30602;51.060;17.226;2023-02-04T13:10:12;103203.34;;;0.95;60.91
44872;BME280;30602;51.060;17.226;2023-02-04T13:13:22;103206.94;;;0.95;61.99
44872;BME280;30602;51.060;17.226;2023-02-04T13:16:32;103214.08;;;0.96;61.51
44872;BME280;30602;51.060;17.226;2023-02-04T13:19:59;103217.81;;;1.11;60.84
44872;BME280;30602;51.060;17.226;2023-02-04T13:23:26;103212.43;;;1.23;61.50
44872;BME280;30602;51.060;17.226;2023-02-04T13:26:35;103221.50;;;1.33;60.53
44872;BME280;30602;51.060;17.226;2023-02-04T13:30:01;103222.46;;;1.22;61.24
44872;BME280;30602;51.060;17.226;2023-02-04T13:33:13;103220.10;;;1.13;61.99
44872;BME280;30602;51.060;17.226;2023-02-04T13:36:25;103224.23;;;1.14;62.92
44872;BME280;30602;51.060;17.226;2023-02-04T13:39:36;103220.69;;;1.05;63.08
44872;BME280;30602;51.060;17.226;2023-02-04T13:42:46;103225.57;;;1.06;63.40
44872;BME280;30602;51.060;17.226;2023-02-04T13:45:57;103234.70;;;1.04;64.49
44872;BME280;30602;51.060;17.226;2023-02-04T13:49:31;103256.64;;;0.96;64.11
44872;BME280;30602;51.060;17.226;2023-02-04T13:52:42;103254.19;;;0.97;66.77
44872;BME280;30602;51.060;17.226;2023-02-04T13:56:09;103263.22;;;0.85;68.23
44872;BME280;30602;51.060;17.226;2023-02-04T13:59:19;103262.65;;;0.72;69.38
44872;BME280;30602;51.060;17.226;2023-02-04T14:02:30;103262.12;;;0.64;69.12
44872;BME280;30602;51.060;17.226;2023-02-04T14:05:38;103266.03;;;0.63;69.02
44872;BME280;30602;51.060;17.226;2023-02-04T14:08:49;103272.05;;;0.63;68.22
44872;BME280;30602;51.060;17.226;2023-02-04T14:11:59;103276.16;;;0.69;68.80
44872;BME280;30602;51.060;17.226;2023-02-04T14:15:12;103273.79;;;0.69;69.72
44872;BME280;30602;51.060;17.226;2023-02-04T14:18:20;103280.97;;;0.51;73.05
44872;BME280;30602;51.060;17.226;2023-02-04T14:21:50;103278.37;;;0.17;76.72
44872;BME280;30602;51.060;17.226;2023-02-04T14:24:59;103277.64;;;-0.05;78.73
44872;BME280;30602;51.060;17.226;2023-02-04T14:28:09;103285.46;;;-0.14;79.55
44872;BME280;30602;51.060;17.226;2023-02-04T14:31:23;103291.47;;;-0.24;79.80
44872;BME280;30602;51.060;17.226;2023-02-04T14:34:33;103286.26;;;-0.25;79.24
44872;BME280;30602;51.060;17.226;2023-02-04T14:37:49;103281.92;;;-0.27;78.81
44872;BME280;30602;51.060;17.226;2023-02-04T14:41:02;103278.43;;;-0.17;78.59
44872;BME280;30602;51.060;17.226;2023-02-04T14:44:27;103280.91;;;-0.17;78.14
44872;BME280;30602;51.060;17.226;2023-02-04T14:47:35;103282.99;;;-0.15;78.10
44872;BME280;30602;51.060;17.226;2023-02-04T14:51:11;103282.73;;;-0.10;78.15
44872;BME280;30602;51.060;17.226;2023-02-04T14:54:52;103288.30;;;-0.01;77.48
44872;BME280;30602;51.060;17.226;2023-02-04T14:58:14;103288.21;;;-0.02;76.48
44872;BME280;30602;51.060;17.226;2023-02-04T15:01:22;103300.37;;;-0.08;76.97
44872;BME280;30602;51.060;17.226;2023-02-04T15:04:33;103310.80;;;-0.23;79.65
44872;BME280;30602;51.060;17.226;2023-02-04T15:08:17;103302.83;;;-0.32;81.37
44872;BME280;30602;51.060;17.226;2023-02-04T15:11:28;103298.98;;;-0.38;82.76
44872;BME280;30602;51.060;17.226;2023-02-04T15:15:04;103299.20;;;-0.52;82.96
44872;BME280;30602;51.060;17.226;2023-02-04T15:18:34;103275.23;;;-0.83;83.59
44872;BME280;30602;51.060;17.226;2023-02-04T15:21:53;103304.93;;;-0.61;83.70
44872;BME280;30602;51.060;17.226;2023-02-04T15:25:23;103306.43;;;-0.56;83.87
44872;BME280;30602;51.060;17.226;2023-02-04T15:28:35;103305.81;;;-0.57;84.03
44872;BME280;30602;51.060;17.226;2023-02-04T15:31:45;103302.10;;;-0.48;83.70
44872;BME280;30602;51.060;17.226;2023-02-04T15:34:58;103302.86;;;-0.45;83.48
44872;BME280;30602;51.060;17.226;2023-02-04T15:38:28;103308.86;;;-0.43;83.25
44872;BME280;30602;51.060;17.226;2023-02-04T15:41:59;103314.49;;;-0.38;83.16
44872;BME280;30602;51.060;17.226;2023-02-04T15:45:40;103319.01;;;-0.36;82.46
44872;BME280;30602;51.060;17.226;2023-02-04T15:49:11;103319.79;;;-0.30;82.44
44872;BME280;30602;51.060;17.226;2023-02-04T15:52:19;103319.52;;;-0.28;82.39
44872;BME280;30602;51.060;17.226;2023-02-04T15:55:27;103320.36;;;-0.32;82.09
44872;BME280;30602;51.060;17.226;2023-02-04T15:58:39;103318.90;;;-0.39;82.10
44872;BME280;30602;51.060;17.226;2023-02-04T16:01:50;103330.91;;;-0.27;81.65
44872;BME280;30602;51.060;17.226;2023-02-04T16:05:00;103340.45;;;-0.24;81.93
44872;BME280;30602;51.060;17.226;2023-02-04T16:08:12;103340.25;;;-0.21;82.31
44872;BME280;30602;51.060;17.226;2023-02-04T16:11:22;103343.82;;;-0.12;82.66
44872;BME280;30602;51.060;17.226;2023-02-04T16:14:32;103343.05;;;-0.18;82.66
44872;BME280;30602;51.060;17.226;2023-02-04T16:18:04;103343.34;;;-0.20;82.67
44872;BME280;30602;51.060;17.226;2023-02-04T16:21:33;103347.20;;;-0.22;82.17
44872;BME280;30602;51.060;17.226;2023-02-04T16:24:44;103347.31;;;-0.40;82.17
44872;BME280;30602;51.060;17.226;2023-02-04T16:27:52;103346.36;;;-0.38;81.03
44872;BME280;30602;51.060;17.226;2023-02-04T16:31:04;103348.45;;;-0.47;80.18
44872;BME280;30602;51.060;17.226;2023-02-04T16:34:16;103346.03;;;-0.48;79.15
44872;BME280;30602;51.060;17.226;2023-02-04T16:37:27;103349.04;;;-0.51;78.96
44872;BME280;30602;51.060;17.226;2023-02-04T16:40:34;103357.12;;;-0.52;79.06
44872;BME280;30602;51.060;17.226;2023-02-04T16:43:56;103356.79;;;-0.51;78.67
44872;BME280;30602;51.060;17.226;2023-02-04T16:47:16;103358.05;;;-0.56;78.67
44872;BME280;30602;51.060;17.226;2023-02-04T16:50:30;103362.71;;;-0.57;78.41
44872;BME280;30602;51.060;17.226;2023-02-04T16:54:04;103358.55;;;-0.69;78.39
44872;BME280;30602;51.060;17.226;2023-02-04T16:57:12;103372.70;;;-0.62;78.61
44872;BME280;30602;51.060;17.226;2023-02-04T17:00:24;103375.55;;;-0.56;78.11
44872;BME280;30602;51.060;17.226;2023-02-04T17:03:35;103353.26;;;-0.66;77.92
44872;BME280;30602;51.060;17.226;2023-02-04T17:06:43;103373.85;;;-0.58;78.54
44872;BME280;30602;51.060;17.226;2023-02-04T17:09:53;103376.50;;;-0.55;78.36
44872;BME280;30602;51.060;17.226;2023-02-04T17:13:04;103384.33;;;-0.50;78.83
44872;BME280;30602;51.060;17.226;2023-02-04T17:16:35;103380.41;;;-0.53;79.39
44872;BME280;30602;51.060;17.226;2023-02-04T17:19:45;103391.54;;;-0.41;79.24
44872;BME280;30602;51.060;17.226;2023-02-04T17:22:53;103391.67;;;-0.40;78.70
44872;BME280;30602;51.060;17.226;2023-02-04T17:26:27;103397.17;;;-0.46;78.92
44872;BME280;30602;51.060;17.226;2023-02-04T17:29:55;103396.89;;;-0.44;78.75
44872;BME280;30602;51.060;17.226;2023-02-04T17:33:28;103392.55;;;-0.45;78.71
44872;BME280;30602;51.060;17.226;2023-02-04T17:36:40;103403.67;;;-0.43;78.52
44872;BME280;30602;51.060;17.226;2023-02-04T17:40:14;103411.70;;;-0.43;78.33
44872;BME280;30602;51.060;17.226;2023-02-04T17:43:24;103414.55;;;-0.41;78.65
44872;BME280;30602;51.060;17.226;2023-02-04T17:47:03;103415.39;;;-0.38;78.42
44872;BME280;30602;51.060;17.226;2023-02-04T17:50:36;103418.27;;;-0.41;79.75